Osage, Wyoming
Current Conditions -  °F | °C
As of 7:15 AM on Thursday 29 Jan 2015 (Local Time) from KECS Reporting Station
Clear Clear  
Wind Chill: -12°   Ceiling: Unl
Heat Index: -7°   Visibility: 10mi
Dew Point: -7°   Wind: 7mph
Humidity: 100%   Direction: 290°WNW
Pressure: 30.46"   Gusts: NA
Location:  43.98°N, 104.42°W
Report Text: KECS 291415Z AUTO 29006KT 10SM CLR M07/M07 A3046 RMK AO2
Loading
Personal Weather Stations






























Interactive Weather Map New forecast layout! Learn more

10-Day Weather Forecast

Advertisements
Track Severe Weather on mobile